Time;durP1;ratioP1;P1;durP2;ratioP2;P2;SDS_P1;SDS_P2;PMS_P1;PMS_P2;Temp;Humidity;BMP_temperature;BMP_pressure;BME280_temperature;BME280_humidity;BME280_pressure;Samples;Min_cycle;Max_cycle;Signal;HPM_P1;HPM_P2
2021/01/18 00:01:08;;;;;;;26.50;10.15;;;1.60;94.60;;;;;;4964995;28;20042;-85
2021/01/18 00:03:39;;;;;;;21.10;9.20;;;1.70;94.40;;;;;;4963916;28;20578;-84
2021/01/18 00:06:07;;;;;;;24.60;8.82;;;1.70;94.30;;;;;;4963953;28;20050;-85
2021/01/18 00:08:35;;;;;;;25.50;10.23;;;1.70;94.50;;;;;;4978849;28;20145;-82
2021/01/18 00:11:05;;;;;;;19.98;8.23;;;1.70;94.40;;;;;;4977408;28;20054;-85
2021/01/18 00:13:32;;;;;;;23.90;9.25;;;1.70;94.40;;;;;;4964230;28;20059;-83
2021/01/18 00:15:59;;;;;;;20.42;8.30;;;1.70;94.30;;;;;;4950243;28;20363;-84
2021/01/18 00:18:26;;;;;;;16.02;8.75;;;1.70;94.40;;;;;;4944426;28;20047;-82
2021/01/18 00:20:54;;;;;;;25.02;8.73;;;1.70;94.30;;;;;;4943376;29;20103;-84
2021/01/18 00:23:21;;;;;;;23.10;8.70;;;1.70;94.50;;;;;;4943392;29;20043;-84
2021/01/18 00:25:48;;;;;;;21.35;9.48;;;1.60;94.40;;;;;;4941978;29;20047;-83
2021/01/18 00:28:18;;;;;;;22.77;9.88;;;1.70;94.60;;;;;;4928275;28;20047;-84
2021/01/18 00:30:48;;;;;;;18.33;7.63;;;1.50;94.30;;;;;;4960443;29;20108;-83
2021/01/18 00:33:14;;;;;;;17.20;7.80;;;1.40;94.50;;;;;;4928786;29;20047;-84
2021/01/18 00:35:41;;;;;;;19.25;8.85;;;1.40;94.70;;;;;;4943564;29;20063;-83
2021/01/18 00:38:08;;;;;;;21.10;8.93;;;1.50;94.80;;;;;;4942923;29;20242;-83
2021/01/18 00:40:35;;;;;;;20.95;9.35;;;1.50;94.60;;;;;;4945299;29;20047;-82
2021/01/18 00:43:03;;;;;;;18.63;8.05;;;1.60;94.70;;;;;;4961058;28;20271;-81
2021/01/18 00:45:31;;;;;;;28.58;12.38;;;1.60;94.40;;;;;;4943846;29;20043;-82
2021/01/18 00:47:57;;;;;;;31.48;13.85;;;1.60;94.30;;;;;;4958689;28;20051;-83
2021/01/18 00:50:27;;;;;;;22.27;11.48;;;1.60;93.70;;;;;;4944141;29;20043;-82
2021/01/18 00:52:59;;;;;;;26.13;10.77;;;1.60;93.90;;;;;;4943595;28;20083;-82
2021/01/18 00:55:32;;;;;;;22.45;10.93;;;1.60;93.80;;;;;;4927507;29;20111;-82
2021/01/18 00:58:23;;;;;;;23.00;10.88;;;1.70;93.90;;;;;;4937710;28;20090;-83
2021/01/18 01:01:14;;;;;;;24.63;12.10;;;1.60;94.00;;;;;;4935931;28;20048;-82
2021/01/18 01:03:42;;;;;;;25.10;9.30;;;1.70;93.90;;;;;;4943448;29;20063;-83
2021/01/18 01:06:09;;;;;;;21.13;9.93;;;1.60;94.10;;;;;;4945161;28;20074;-84
2021/01/18 01:08:36;;;;;;;17.00;8.25;;;1.60;94.40;;;;;;4928527;29;20075;-81
2021/01/18 01:11:04;;;;;;;16.23;8.27;;;1.70;94.50;;;;;;4942615;29;20055;-83
2021/01/18 01:13:31;;;;;;;19.38;9.98;;;1.70;94.40;;;;;;4944318;29;20055;-81
2021/01/18 01:15:57;;;;;;;14.88;7.18;;;1.70;94.60;;;;;;4962836;28;20372;-82
2021/01/18 01:18:25;;;;;;;20.83;9.82;;;1.70;94.30;;;;;;4966134;28;20043;-84
2021/01/18 01:20:52;;;;;;;20.13;7.60;;;1.70;94.60;;;;;;4984131;28;20054;-82
2021/01/18 01:23:19;;;;;;;22.08;9.77;;;1.70;94.60;;;;;;4966394;28;20046;-84
2021/01/18 01:25:46;;;;;;;23.42;9.38;;;1.70;94.70;;;;;;4966431;28;20356;-85
2021/01/18 01:28:14;;;;;;;20.00;9.05;;;1.70;94.80;;;;;;4950738;28;20047;-83
2021/01/18 01:30:41;;;;;;;16.92;8.40;;;1.70;94.60;;;;;;4985683;28;20145;-83
2021/01/18 01:33:07;;;;;;;21.15;7.50;;;1.70;94.50;;;;;;4963995;28;20066;-85
2021/01/18 01:35:35;;;;;;;20.05;8.68;;;1.70;94.60;;;;;;4964367;28;20375;-82
2021/01/18 01:38:02;;;;;;;18.75;8.57;;;1.80;94.50;;;;;;4982611;28;20202;-84
2021/01/18 01:40:29;;;;;;;17.75;7.45;;;1.80;94.20;;;;;;4964929;28;20039;-83
2021/01/18 01:42:56;;;;;;;19.35;7.53;;;1.80;94.50;;;;;;4965561;28;20092;-82
2021/01/18 01:45:23;;;;;;;16.55;8.45;;;1.90;94.30;;;;;;4933937;28;20061;-83
2021/01/18 01:47:53;;;;;;;24.48;9.73;;;1.90;94.40;;;;;;4965551;28;20091;-82
2021/01/18 01:50:23;;;;;;;19.75;8.50;;;2.00;94.40;;;;;;4964529;28;20065;-86
2021/01/18 01:52:55;;;;;;;21.47;9.40;;;2.00;94.30;;;;;;4965254;28;20050;-82
2021/01/18 01:55:28;;;;;;;22.35;9.60;;;2.00;94.30;;;;;;4980665;28;20082;-85
2021/01/18 01:57:57;;;;;;;18.55;8.88;;;2.00;94.40;;;;;;4982451;28;20153;-85
2021/01/18 02:00:36;;;;;;;19.77;8.77;;;2.10;94.30;;;;;;4948346;28;20131;-82
2021/01/18 02:03:08;;;;;;;27.08;9.15;;;2.00;94.20;;;;;;4965441;28;20078;-85
2021/01/18 02:05:36;;;;;;;22.40;10.43;;;2.00;94.30;;;;;;4964131;28;20055;-83
2021/01/18 02:08:05;;;;;;;19.65;8.18;;;2.00;94.50;;;;;;4949293;28;20227;-83
2021/01/18 02:10:33;;;;;;;18.83;9.15;;;2.00;94.50;;;;;;4964414;28;20063;-83
2021/01/18 02:13:03;;;;;;;22.30;8.57;;;2.10;94.40;;;;;;4981474;28;20059;-83
2021/01/18 02:15:50;;;;;;;17.50;8.20;;;2.00;94.50;;;;;;4984036;28;20382;-81
2021/01/18 02:18:44;;;;;;;21.65;8.95;;;2.00;94.50;;;;;;4984312;28;20054;-82
2021/01/18 02:21:48;;;;;;;20.13;8.20;;;2.00;94.50;;;;;;4970189;28;20082;-83
2021/01/18 02:24:42;;;;;;;20.85;7.45;;;2.00;94.60;;;;;;4981125;28;20141;-86
2021/01/18 02:27:24;;;;;;;24.05;9.55;;;2.00;94.60;;;;;;4965593;28;20082;-83
2021/01/18 02:30:08;;;;;;;20.00;8.27;;;2.00;94.50;;;;;;4985608;28;20057;-84
2021/01/18 02:33:03;;;;;;;18.23;9.18;;;2.00;94.50;;;;;;4967687;28;20364;-85
2021/01/18 02:36:07;;;;;;;24.80;9.45;;;2.10;94.30;;;;;;4986352;28;20062;-82
2021/01/18 02:38:42;;;;;;;20.67;7.82;;;2.10;94.20;;;;;;4966378;28;20046;-83
2021/01/18 02:41:22;;;;;;;16.10;7.93;;;2.00;94.40;;;;;;4957505;28;20160;-86
2021/01/18 02:43:53;;;;;;;18.23;10.17;;;2.00;94.50;;;;;;4982004;28;20062;-82
2021/01/18 02:46:21;;;;;;;27.10;9.38;;;2.00;94.60;;;;;;4957825;28;20057;-82
2021/01/18 02:48:49;;;;;;;17.33;8.15;;;2.00;94.30;;;;;;4979394;28;20050;-81
2021/01/18 02:51:20;;;;;;;18.90;9.00;;;2.00;94.50;;;;;;4960666;28;20105;-80
2021/01/18 02:53:57;;;;;;;18.10;8.10;;;2.00;94.30;;;;;;4974593;28;20560;-82
2021/01/18 02:56:27;;;;;;;18.42;8.45;;;2.00;94.20;;;;;;4975149;28;20134;-84
2021/01/18 02:58:56;;;;;;;17.83;7.07;;;2.00;94.40;;;;;;4957670;28;20089;-81
2021/01/18 03:01:53;;;;;;;14.55;7.78;;;1.90;94.20;;;;;;4959606;28;20084;-81
2021/01/18 03:04:32;;;;;;;19.73;8.32;;;2.00;94.20;;;;;;4980161;28;20305;-82
2021/01/18 03:07:07;;;;;;;18.38;8.02;;;1.90;94.20;;;;;;4943589;28;20063;-85
2021/01/18 03:09:40;;;;;;;18.20;8.95;;;1.90;94.30;;;;;;4943846;28;20055;-83
2021/01/18 03:12:11;;;;;;;16.25;7.25;;;1.90;94.40;;;;;;4959853;28;20070;-82
2021/01/18 03:14:43;;;;;;;15.35;8.50;;;1.90;94.80;;;;;;4959711;28;20230;-82
2021/01/18 03:17:14;;;;;;;16.30;8.32;;;1.90;94.60;;;;;;4960727;28;20066;-82
2021/01/18 03:19:42;;;;;;;19.77;7.32;;;1.90;94.70;;;;;;4941833;28;20070;-82
2021/01/18 03:22:21;;;;;;;25.23;7.60;;;2.00;94.70;;;;;;4958784;28;20255;-81
2021/01/18 03:24:48;;;;;;;19.08;8.60;;;2.00;94.70;;;;;;4959779;28;20069;-84
2021/01/18 03:27:15;;;;;;;18.77;8.52;;;1.90;94.90;;;;;;4966097;28;20042;-83
2021/01/18 03:29:42;;;;;;;16.42;7.30;;;2.00;94.90;;;;;;4965260;28;20353;-84
2021/01/18 03:32:10;;;;;;;17.52;7.55;;;2.00;95.00;;;;;;4980486;28;20253;-84
2021/01/18 03:34:36;;;;;;;17.45;8.15;;;2.00;94.80;;;;;;4979616;28;20283;-82
2021/01/18 03:37:05;;;;;;;17.27;7.75;;;2.00;95.00;;;;;;4974553;28;20063;-85
2021/01/18 03:39:33;;;;;;;17.00;7.75;;;2.00;94.90;;;;;;4961304;28;20397;-83
2021/01/18 03:42:00;;;;;;;19.70;8.60;;;2.00;95.00;;;;;;4960570;28;20069;-86
2021/01/18 03:44:30;;;;;;;16.67;5.78;;;2.00;95.00;;;;;;4954807;28;20057;-83
2021/01/18 03:46:57;;;;;;;21.63;8.98;;;2.20;94.80;;;;;;4976594;28;20058;-81
2021/01/18 03:49:24;;;;;;;15.32;8.38;;;2.10;94.70;;;;;;4969066;28;20108;-84
2021/01/18 03:51:50;;;;;;;19.92;9.07;;;2.00;94.80;;;;;;4975032;28;20241;-83
2021/01/18 03:54:19;;;;;;;18.65;8.07;;;2.00;94.90;;;;;;4974610;28;20058;-84
2021/01/18 03:56:47;;;;;;;17.27;7.65;;;2.00;95.20;;;;;;4972906;28;20046;-83
2021/01/18 03:59:13;;;;;;;22.65;9.27;;;2.00;95.20;;;;;;4970497;28;20057;-85
2021/01/18 04:01:41;;;;;;;19.90;7.57;;;2.00;95.10;;;;;;4975660;28;20067;-83
2021/01/18 04:04:08;;;;;;;15.15;7.20;;;2.00;95.20;;;;;;4971865;28;20059;-83
2021/01/18 04:06:39;;;;;;;16.75;7.88;;;2.00;95.10;;;;;;4979266;28;20239;-82
2021/01/18 04:09:05;;;;;;;;;;;2.00;95.10;;;;;;4956300;28;20055;-83
2021/01/18 04:11:33;;;;;;;19.77;9.30;;;2.20;95.00;;;;;;4976343;28;19925;-84
2021/01/18 04:14:01;;;;;;;14.27;6.30;;;2.20;94.50;;;;;;4977102;28;20051;-84
2021/01/18 04:16:28;;;;;;;14.13;6.22;;;2.10;94.70;;;;;;4981701;28;20080;-84
2021/01/18 04:18:54;;;;;;;13.95;8.25;;;2.10;94.70;;;;;;4959232;28;20238;-85
2021/01/18 04:21:21;;;;;;;16.08;6.75;;;2.20;94.60;;;;;;4979681;28;20057;-86
2021/01/18 04:23:48;;;;;;;16.30;7.72;;;2.20;94.60;;;;;;4963417;28;20058;-83
2021/01/18 04:26:15;;;;;;;14.63;7.78;;;2.20;94.60;;;;;;4976035;28;20097;-82
2021/01/18 04:28:41;;;;;;;15.38;7.50;;;2.20;94.40;;;;;;4976773;28;20061;-82
2021/01/18 04:31:09;;;;;;;18.90;7.30;;;2.20;94.50;;;;;;4979546;28;20054;-83
2021/01/18 04:33:36;;;;;;;13.70;6.78;;;2.20;94.50;;;;;;4961584;28;20050;-83
2021/01/18 04:36:06;;;;;;;18.55;8.00;;;2.20;94.70;;;;;;4958816;28;20059;-83
2021/01/18 04:38:33;;;;;;;16.10;7.15;;;2.20;94.60;;;;;;4979045;28;20644;-83
2021/01/18 04:41:00;;;;;;;18.70;8.38;;;2.20;94.50;;;;;;4974847;28;20065;-84
2021/01/18 04:43:28;;;;;;;18.45;6.78;;;2.20;94.80;;;;;;4961279;28;20443;-83
2021/01/18 04:45:56;;;;;;;17.17;7.97;;;2.20;94.70;;;;;;4980213;28;20235;-84
2021/01/18 04:48:24;;;;;;;17.70;7.38;;;2.10;94.80;;;;;;4976735;28;20078;-83
2021/01/18 04:50:51;;;;;;;11.95;6.13;;;2.20;94.90;;;;;;4976564;28;20066;-82
2021/01/18 04:53:25;;;;;;;16.00;7.65;;;2.20;94.70;;;;;;4979473;28;20058;-83
2021/01/18 04:56:11;;;;;;;11.38;5.72;;;2.20;94.70;;;;;;4962782;28;20065;-80
2021/01/18 04:58:39;;;;;;;15.02;6.55;;;2.20;94.90;;;;;;4979897;28;20293;-82
2021/01/18 05:01:06;;;;;;;14.40;6.25;;;2.20;94.80;;;;;;4976682;28;20047;-83
2021/01/18 05:03:36;;;;;;;16.55;7.03;;;2.10;94.90;;;;;;4977907;28;20066;-83
2021/01/18 05:06:39;;;;;;;13.05;5.03;;;2.00;95.00;;;;;;4975919;28;20054;-84
2021/01/18 05:09:24;;;;;;;15.65;5.70;;;2.20;95.10;;;;;;4950364;28;22247;-84
2021/01/18 05:11:51;;;;;;;17.05;5.85;;;2.10;95.10;;;;;;4961498;28;20113;-82
2021/01/18 05:14:18;;;;;;;10.45;6.03;;;2.10;95.10;;;;;;4976546;28;20258;-82
2021/01/18 05:16:56;;;;;;;21.00;8.75;;;2.10;94.90;;;;;;4959655;28;20061;-85
2021/01/18 05:19:26;;;;;;;14.45;6.55;;;2.10;95.00;;;;;;4978666;28;20053;-84
2021/01/18 05:21:53;;;;;;;13.60;5.72;;;2.00;95.10;;;;;;4960651;28;20042;-82
2021/01/18 05:24:21;;;;;;;11.63;5.22;;;2.10;95.10;;;;;;4976207;28;20058;-83
2021/01/18 05:27:03;;;;;;;10.60;5.13;;;2.00;95.20;;;;;;4977427;28;20050;-83
2021/01/18 05:29:32;;;;;;;10.07;5.70;;;2.10;95.00;;;;;;4959572;28;20089;-82
2021/01/18 05:31:59;;;;;;;11.73;4.82;;;2.10;95.10;;;;;;4978322;28;20054;-83
2021/01/18 05:34:28;;;;;;;15.65;4.97;;;2.20;95.10;;;;;;4957334;28;20059;-84
2021/01/18 05:36:57;;;;;;;14.55;4.72;;;2.10;95.00;;;;;;4962024;28;20075;-84
2021/01/18 05:39:30;;;;;;;11.68;5.00;;;2.10;95.30;;;;;;4959929;28;20055;-82
2021/01/18 05:41:58;;;;;;;11.82;5.20;;;2.20;95.20;;;;;;4976822;28;20059;-84
2021/01/18 05:44:32;;;;;;;15.70;6.05;;;2.20;95.00;;;;;;4974417;28;20281;-82
2021/01/18 05:47:03;;;;;;;14.68;4.85;;;2.20;95.30;;;;;;4976617;28;20051;-82
2021/01/18 05:49:40;;;;;;;10.85;4.53;;;2.30;95.00;;;;;;4978788;28;20081;-83
2021/01/18 05:52:24;;;;;;;9.02;4.50;;;2.30;94.90;;;;;;4965584;28;20089;-83
2021/01/18 05:54:52;;;;;;;14.18;4.97;;;2.20;94.90;;;;;;4961069;28;20349;-83
2021/01/18 05:57:19;;;;;;;9.50;4.35;;;2.20;95.10;;;;;;4961472;28;20047;-83
2021/01/18 05:59:46;;;;;;;11.77;4.93;;;2.20;95.20;;;;;;4976870;28;20102;-82
2021/01/18 06:02:22;;;;;;;10.10;5.38;;;2.30;94.90;;;;;;4965165;28;20366;-83
2021/01/18 06:04:52;;;;;;;10.35;5.28;;;2.30;95.00;;;;;;4978946;28;20070;-82
2021/01/18 06:07:23;;;;;;;12.77;5.88;;;2.30;94.90;;;;;;4982633;28;20050;-82
2021/01/18 06:09:51;;;;;;;12.25;5.07;;;2.30;95.00;;;;;;4977289;28;20122;-82
2021/01/18 06:12:27;;;;;;;12.85;5.30;;;2.30;95.10;;;;;;4980845;28;20173;-84
2021/01/18 06:15:05;;;;;;;10.43;5.22;;;2.30;95.20;;;;;;4962330;28;20051;-85
2021/01/18 06:17:37;;;;;;;10.70;6.20;;;2.20;95.20;;;;;;4976608;28;20249;-85
2021/01/18 06:20:08;;;;;;;14.38;5.60;;;2.20;95.50;;;;;;4961473;28;21054;-84
2021/01/18 06:22:35;;;;;;;15.70;6.07;;;2.20;95.30;;;;;;4946820;28;20346;-85
2021/01/18 06:25:12;;;;;;;11.57;5.05;;;2.30;95.00;;;;;;4948448;28;20074;-83
2021/01/18 06:27:42;;;;;;;12.40;5.15;;;2.30;95.10;;;;;;4957293;28;20087;-81
2021/01/18 06:30:23;;;;;;;11.38;5.43;;;2.30;95.10;;;;;;4980361;28;20081;-82
2021/01/18 06:32:51;;;;;;;11.73;5.57;;;2.30;95.10;;;;;;4977333;28;20059;-82
2021/01/18 06:35:24;;;;;;;14.73;4.63;;;2.30;94.90;;;;;;4978125;28;20242;-84
2021/01/18 06:37:57;;;;;;;12.65;4.68;;;2.30;95.00;;;;;;4961557;28;20055;-82
2021/01/18 06:40:28;;;;;;;10.98;5.07;;;2.30;95.20;;;;;;4977908;28;20229;-84
2021/01/18 06:42:59;;;;;;;15.35;5.97;;;2.30;95.00;;;;;;4978254;28;20362;-83
2021/01/18 06:45:35;;;;;;;17.23;5.68;;;2.40;94.80;;;;;;4961532;28;20237;-84
2021/01/18 06:48:05;;;;;;;14.15;5.25;;;2.40;94.90;;;;;;4964698;28;20137;-83
2021/01/18 06:50:37;;;;;;;12.18;4.88;;;2.40;95.00;;;;;;4960285;28;20389;-83
2021/01/18 06:53:16;;;;;;;7.70;3.88;;;2.30;94.90;;;;;;4960468;28;20059;-82
2021/01/18 06:56:31;;;;;;;12.07;6.18;;;2.40;95.10;;;;;;4962874;28;20373;-83
2021/01/18 06:59:04;;;;;;;8.70;5.30;;;2.30;95.00;;;;;;4978883;28;20121;-83
2021/01/18 07:01:34;;;;;;;13.90;6.90;;;2.30;95.30;;;;;;4979105;28;20059;-82
2021/01/18 07:04:08;;;;;;;12.25;5.50;;;2.30;95.30;;;;;;4976536;28;20054;-84
2021/01/18 07:06:37;;;;;;;13.35;5.40;;;2.30;95.20;;;;;;4960922;28;20055;-87
2021/01/18 07:09:07;;;;;;;11.40;5.35;;;2.30;95.30;;;;;;4944652;28;20349;-82
2021/01/18 07:11:34;;;;;;;13.05;5.75;;;2.30;95.20;;;;;;4975564;28;20059;-82
2021/01/18 07:14:08;;;;;;;17.50;6.65;;;2.40;95.20;;;;;;4977579;28;20055;-83
2021/01/18 07:16:35;;;;;;;14.85;6.05;;;2.40;95.00;;;;;;4975945;28;20058;-83
2021/01/18 07:19:04;;;;;;;11.65;5.75;;;2.40;95.00;;;;;;4978283;28;20122;-82
2021/01/18 07:21:43;;;;;;;13.27;4.20;;;2.40;94.80;;;;;;4978777;28;20254;-82
2021/01/18 07:24:15;;;;;;;11.90;7.00;;;2.50;94.80;;;;;;4963506;28;20300;-82
2021/01/18 07:26:55;;;;;;;12.18;6.10;;;2.50;94.70;;;;;;4962377;28;20074;-84
2021/01/18 07:29:25;;;;;;;11.75;6.22;;;2.40;94.80;;;;;;4960547;28;20109;-83
2021/01/18 07:31:54;;;;;;;11.90;5.50;;;2.50;94.90;;;;;;4959813;28;20107;-81
2021/01/18 07:34:24;;;;;;;9.50;3.88;;;2.50;94.40;;;;;;4959988;28;20129;-84
2021/01/18 07:36:52;;;;;;;10.02;4.28;;;2.50;94.20;;;;;;4963021;28;20114;-83
2021/01/18 07:39:26;;;;;;;10.85;5.10;;;2.50;94.40;;;;;;4960245;28;20260;-84
2021/01/18 07:41:53;;;;;;;10.48;5.55;;;2.60;94.40;;;;;;4960202;28;20095;-84
2021/01/18 07:44:41;;;;;;;14.88;5.25;;;2.60;94.30;;;;;;4962975;28;20110;-84
2021/01/18 07:47:10;;;;;;;9.02;4.88;;;2.50;94.40;;;;;;4976430;28;20062;-82
2021/01/18 07:49:39;;;;;;;9.40;5.07;;;2.50;94.40;;;;;;4961639;28;20412;-83
2021/01/18 07:52:35;;;;;;;12.10;4.13;;;2.40;94.40;;;;;;4978789;28;20070;-81
2021/01/18 07:55:22;;;;;;;10.95;4.88;;;2.50;94.50;;;;;;4960256;28;20359;-84
2021/01/18 07:57:49;;;;;;;15.27;4.40;;;2.40;94.60;;;;;;4958578;28;20439;-81
2021/01/18 08:00:32;;;;;;;8.57;4.82;;;2.60;94.50;;;;;;4977531;28;20059;-84
2021/01/18 08:03:25;;;;;;;8.63;4.43;;;2.60;93.90;;;;;;4976348;28;20233;-85
2021/01/18 08:06:05;;;;;;;9.35;4.07;;;2.60;93.80;;;;;;4976005;28;20070;-82
2021/01/18 08:08:34;;;;;;;10.65;3.97;;;2.70;93.50;;;;;;4975867;28;20378;-82
2021/01/18 08:11:03;;;;;;;10.00;3.65;;;2.60;93.50;;;;;;4973823;28;20055;-83
2021/01/18 08:13:41;;;;;;;7.22;3.35;;;2.60;93.40;;;;;;4977933;28;20063;-87
2021/01/18 08:16:19;;;;;;;8.20;3.72;;;2.60;93.20;;;;;;4976426;28;20055;-82
2021/01/18 08:18:59;;;;;;;8.40;3.20;;;2.60;93.10;;;;;;4947115;28;20066;-82
2021/01/18 08:21:58;;;;;;;8.52;3.83;;;2.60;93.00;;;;;;4960505;28;20050;-82
2021/01/18 08:25:01;;;;;;;7.65;3.80;;;2.60;92.90;;;;;;4941551;28;20241;-82
2021/01/18 08:27:42;;;;;;;8.20;3.10;;;2.60;92.70;;;;;;4979976;28;20050;-83
2021/01/18 08:30:33;;;;;;;9.27;3.55;;;2.60;92.80;;;;;;4979697;28;20081;-84
2021/01/18 08:33:02;;;;;;;9.68;3.80;;;2.60;92.90;;;;;;4977530;28;20132;-83
2021/01/18 08:35:32;;;;;;;8.80;3.95;;;2.70;92.80;;;;;;4957169;28;20070;-84
2021/01/18 08:38:02;;;;;;;7.32;3.08;;;2.60;92.80;;;;;;4974684;28;20050;-82
2021/01/18 08:40:50;;;;;;;8.48;3.20;;;2.70;92.60;;;;;;4939426;28;20051;-82
2021/01/18 08:43:20;;;;;;;9.85;3.65;;;2.70;92.40;;;;;;4959407;28;20122;-84
2021/01/18 08:45:48;;;;;;;6.80;3.08;;;2.70;92.00;;;;;;4979213;28;20059;-83
2021/01/18 08:48:22;;;;;;;13.75;4.15;;;2.70;92.30;;;;;;4979626;28;20153;-82
2021/01/18 08:50:52;;;;;;;9.32;3.70;;;2.70;92.10;;;;;;4962904;28;20047;-82
2021/01/18 08:53:25;;;;;;;7.05;3.50;;;2.70;92.40;;;;;;4974546;28;20058;-82
2021/01/18 08:55:52;;;;;;;9.48;3.15;;;2.80;92.10;;;;;;4977990;28;20273;-82
2021/01/18 08:58:42;;;;;;;8.30;3.33;;;2.80;92.10;;;;;;4960568;28;20128;-85
2021/01/18 09:01:18;;;;;;;8.03;3.67;;;2.80;92.10;;;;;;4964958;28;20050;-83
2021/01/18 09:03:45;;;;;;;7.93;3.85;;;2.80;91.80;;;;;;4976615;28;20116;-84
2021/01/18 09:06:12;;;;;;;9.90;3.78;;;2.80;91.90;;;;;;4957532;28;20242;-84
2021/01/18 09:08:40;;;;;;;6.43;3.53;;;2.90;91.50;;;;;;4977210;28;20115;-82
2021/01/18 09:11:09;;;;;;;16.50;3.80;;;2.90;91.20;;;;;;4958019;28;20074;-82
2021/01/18 09:13:39;;;;;;;6.65;3.72;;;3.00;91.20;;;;;;4973716;28;20123;-83
2021/01/18 09:16:08;;;;;;;4.75;2.95;;;3.20;90.90;;;;;;4957190;28;20170;-81
2021/01/18 09:18:36;;;;;;;8.48;3.95;;;3.20;90.70;;;;;;4961731;28;20062;-83
2021/01/18 09:21:07;;;;;;;9.30;3.03;;;3.30;89.80;;;;;;4963133;28;20505;-85
2021/01/18 09:23:34;;;;;;;;;;;3.30;89.80;;;;;;4961826;28;20058;-83
2021/01/18 09:26:04;;;;;;;8.10;3.53;;;3.30;89.90;;;;;;4961217;28;19926;-84
2021/01/18 09:28:31;;;;;;;10.55;3.33;;;3.30;89.70;;;;;;4962028;28;20054;-83
2021/01/18 09:31:12;;;;;;;7.13;3.83;;;3.10;90.00;;;;;;4961953;28;20054;-81
2021/01/18 09:33:41;;;;;;;6.90;3.15;;;3.10;90.00;;;;;;4976239;28;20341;-83
2021/01/18 09:36:12;;;;;;;7.00;2.75;;;3.20;89.70;;;;;;4960187;28;20097;-82
2021/01/18 09:38:40;;;;;;;10.68;4.10;;;3.10;90.10;;;;;;4962885;28;20059;-82
2021/01/18 09:41:07;;;;;;;8.52;3.17;;;3.20;89.50;;;;;;4958599;28;20066;-82
2021/01/18 09:43:34;;;;;;;7.40;3.00;;;3.20;89.30;;;;;;4973631;28;20054;-82
2021/01/18 09:46:02;;;;;;;8.23;2.53;;;3.20;89.90;;;;;;4977433;28;20381;-82
2021/01/18 09:48:30;;;;;;;6.35;2.92;;;3.30;89.20;;;;;;4943403;28;20055;-82
2021/01/18 09:51:02;;;;;;;5.85;3.45;;;3.20;89.10;;;;;;4976304;28;20105;-82
2021/01/18 09:53:30;;;;;;;4.97;2.85;;;3.10;89.30;;;;;;4960259;28;20410;-82
2021/01/18 09:56:00;;;;;;;4.00;1.65;;;3.10;89.60;;;;;;4959035;28;20061;-83
2021/01/18 09:58:51;;;;;;;9.20;3.35;;;3.10;89.70;;;;;;4976714;28;20150;-83
2021/01/18 10:01:19;;;;;;;5.68;2.95;;;3.00;89.80;;;;;;4959613;28;20059;-82
2021/01/18 10:03:54;;;;;;;5.93;2.40;;;3.00;90.20;;;;;;4979820;28;20101;-82
2021/01/18 10:06:25;;;;;;;4.43;1.98;;;3.00;90.20;;;;;;4959440;28;20047;-84
2021/01/18 10:08:58;;;;;;;5.10;2.80;;;3.10;89.90;;;;;;4970895;28;20121;-84
2021/01/18 10:11:39;;;;;;;5.00;2.80;;;3.10;90.40;;;;;;4607251;28;10000588;-83
2021/01/18 10:14:18;;;;;;;7.18;3.20;;;3.20;90.10;;;;;;1370106;28;10002042;-84
2021/01/18 10:16:57;;;;;;;6.53;2.88;;;3.30;89.60;;;;;;4971996;28;20165;-84
2021/01/18 10:19:26;;;;;;;5.53;2.17;;;3.40;89.40;;;;;;4956503;28;20070;-84
2021/01/18 10:21:54;;;;;;;9.57;2.22;;;3.50;88.60;;;;;;4959827;28;20046;-81
2021/01/18 10:24:26;;;;;;;9.77;3.50;;;3.60;88.30;;;;;;4974104;28;20047;-83
2021/01/18 10:27:02;;;;;;;5.60;2.50;;;3.50;88.10;;;;;;4975713;28;20070;-82
2021/01/18 10:29:30;;;;;;;5.70;2.75;;;3.50;88.70;;;;;;4944978;28;20079;-82
2021/01/18 10:31:57;;;;;;;8.70;3.95;;;3.40;89.10;;;;;;4944841;28;20043;-83
2021/01/18 10:34:29;;;;;;;11.48;3.30;;;3.30;89.30;;;;;;4960675;28;20066;-84
2021/01/18 10:37:09;;;;;;;4.85;2.38;;;3.20;89.90;;;;;;4959294;28;20058;-83
2021/01/18 10:39:38;;;;;;;4.53;2.33;;;3.30;90.00;;;;;;4976144;28;20768;-84
2021/01/18 10:42:07;;;;;;;9.52;2.55;;;3.20;89.80;;;;;;4959614;28;20046;-87
2021/01/18 10:44:35;;;;;;;5.78;3.05;;;3.30;90.40;;;;;;4960114;28;20062;-86
2021/01/18 10:47:02;;;;;;;11.25;2.63;;;3.30;89.80;;;;;;4978245;28;20077;-82
2021/01/18 10:49:31;;;;;;;4.43;2.42;;;3.40;89.90;;;;;;4976207;28;20054;-83
2021/01/18 10:52:03;;;;;;;5.03;2.38;;;3.40;89.40;;;;;;4978439;28;20039;-83
2021/01/18 10:54:32;;;;;;;6.05;2.10;;;3.50;89.40;;;;;;4959055;28;20070;-83
2021/01/18 10:56:59;;;;;;;6.40;3.20;;;3.60;88.90;;;;;;4942719;28;20413;-84
2021/01/18 10:59:27;;;;;;;7.30;2.88;;;3.80;88.10;;;;;;4977592;28;20046;-84
2021/01/18 11:02:03;;;;;;;4.80;2.28;;;3.90;87.80;;;;;;4977871;28;20113;-83
2021/01/18 11:04:34;;;;;;;8.27;2.67;;;4.10;87.30;;;;;;4981348;28;20059;-83
2021/01/18 11:07:09;;;;;;;7.63;2.63;;;4.10;87.00;;;;;;4964398;28;20077;-84
2021/01/18 11:09:36;;;;;;;4.65;2.03;;;4.20;86.40;;;;;;4977243;28;20061;-82
2021/01/18 11:12:05;;;;;;;8.73;2.95;;;4.10;87.00;;;;;;4982755;28;20070;-82
2021/01/18 11:14:33;;;;;;;11.23;2.95;;;4.10;86.80;;;;;;4958751;28;20278;-83
2021/01/18 11:17:03;;;;;;;7.28;2.78;;;4.00;86.60;;;;;;4981055;28;20078;-82
2021/01/18 11:19:31;;;;;;;7.75;2.50;;;3.90;86.70;;;;;;4958662;28;20054;-82
2021/01/18 11:21:58;;;;;;;7.35;3.05;;;3.70;87.60;;;;;;4957935;28;20054;-84
2021/01/18 11:24:25;;;;;;;5.78;2.20;;;3.70;87.50;;;;;;4959932;28;20058;-83
2021/01/18 11:26:54;;;;;;;6.35;2.70;;;3.80;87.70;;;;;;4975625;28;20102;-84
2021/01/18 11:29:21;;;;;;;6.07;2.92;;;4.00;87.30;;;;;;4958255;28;20046;-82
2021/01/18 11:31:49;;;;;;;7.47;3.58;;;3.80;87.70;;;;;;4960031;28;20050;-82
2021/01/18 11:34:16;;;;;;;6.10;3.08;;;3.90;88.00;;;;;;4963627;28;20062;-83
2021/01/18 11:36:47;;;;;;;9.38;3.17;;;3.90;87.00;;;;;;4978689;28;20042;-84
2021/01/18 11:39:13;;;;;;;3.45;1.83;;;4.00;87.30;;;;;;4959869;28;20053;-82
2021/01/18 11:41:41;;;;;;;8.70;2.45;;;4.20;87.00;;;;;;4972918;28;20050;-83
2021/01/18 11:44:08;;;;;;;13.18;3.53;;;4.10;86.60;;;;;;4956521;28;20372;-83
2021/01/18 11:46:35;;;;;;;10.65;3.15;;;4.20;86.50;;;;;;4974166;28;20054;-82
2021/01/18 11:49:08;;;;;;;6.28;2.60;;;4.20;86.70;;;;;;4976126;28;20109;-85
2021/01/18 11:51:36;;;;;;;8.05;2.97;;;4.40;86.10;;;;;;4944213;28;20102;-84
2021/01/18 11:54:04;;;;;;;7.53;3.30;;;4.40;85.70;;;;;;4978763;28;20461;-83
2021/01/18 11:56:32;;;;;;;10.45;3.50;;;4.50;85.50;;;;;;4960498;28;20066;-83
2021/01/18 11:58:59;;;;;;;6.35;2.58;;;4.60;85.30;;;;;;4960198;28;20126;-82
2021/01/18 12:01:26;;;;;;;8.25;3.38;;;4.60;84.80;;;;;;4968573;28;20050;-84
2021/01/18 12:03:53;;;;;;;10.85;3.65;;;4.70;85.50;;;;;;4972904;28;20059;-84
2021/01/18 12:06:20;;;;;;;7.78;2.72;;;4.60;84.90;;;;;;4970542;28;20376;-84
2021/01/18 12:08:49;;;;;;;8.43;2.95;;;4.70;84.90;;;;;;4942812;28;20050;-83
2021/01/18 12:11:18;;;;;;;6.70;2.78;;;5.10;83.60;;;;;;4957326;28;20331;-86
2021/01/18 12:13:47;;;;;;;8.90;3.65;;;5.40;83.10;;;;;;4971768;28;20082;-82
2021/01/18 12:16:23;;;;;;;6.70;2.60;;;5.20;82.80;;;;;;4974755;28;20065;-83
2021/01/18 12:18:51;;;;;;;6.30;2.50;;;5.10;83.20;;;;;;4957860;28;20046;-82
2021/01/18 12:21:23;;;;;;;9.48;2.97;;;5.00;83.70;;;;;;4974708;28;20054;-84
2021/01/18 12:23:51;;;;;;;10.32;2.92;;;4.70;84.50;;;;;;4975938;28;20262;-83
2021/01/18 12:26:20;;;;;;;7.32;3.47;;;4.70;84.60;;;;;;4958288;28;20452;-81
2021/01/18 12:28:48;;;;;;;8.27;3.08;;;4.50;84.80;;;;;;4977883;28;20125;-83
2021/01/18 12:31:16;;;;;;;5.45;2.60;;;4.60;85.00;;;;;;4957376;28;20068;-83
2021/01/18 12:33:44;;;;;;;6.80;3.42;;;4.60;84.70;;;;;;4976964;28;20051;-83
2021/01/18 12:36:11;;;;;;;8.25;3.55;;;4.40;84.90;;;;;;4965595;28;20095;-82
2021/01/18 12:38:41;;;;;;;9.95;3.42;;;4.40;85.40;;;;;;4963836;28;20054;-83
2021/01/18 12:41:08;;;;;;;8.52;3.55;;;4.60;85.40;;;;;;4964699;28;20043;-83
2021/01/18 12:43:37;;;;;;;8.32;2.70;;;4.60;85.20;;;;;;4981215;28;20059;-85
2021/01/18 12:46:07;;;;;;;7.57;3.53;;;4.60;84.80;;;;;;4963513;28;20059;-83
2021/01/18 12:48:37;;;;;;;6.93;3.50;;;4.70;84.40;;;;;;4948919;28;20345;-83
2021/01/18 12:51:08;;;;;;;7.35;3.03;;;4.60;84.70;;;;;;4958898;28;20058;-83
2021/01/18 12:53:44;;;;;;;8.68;3.00;;;4.60;85.10;;;;;;4939298;28;20050;-83
2021/01/18 12:56:21;;;;;;;8.13;3.92;;;4.60;85.10;;;;;;4955408;28;20042;-81
2021/01/18 12:58:55;;;;;;;8.30;3.22;;;4.70;85.10;;;;;;4977605;28;20054;-82
2021/01/18 13:01:27;;;;;;;8.15;2.63;;;4.60;84.80;;;;;;4976524;28;20055;-82
2021/01/18 13:03:54;;;;;;;9.80;3.58;;;4.90;83.70;;;;;;4959468;28;20125;-84
2021/01/18 13:06:21;;;;;;;8.38;3.17;;;4.90;84.50;;;;;;4956855;28;20038;-84
2021/01/18 13:08:48;;;;;;;7.72;3.15;;;4.80;83.90;;;;;;4975615;28;20061;-83
2021/01/18 13:11:20;;;;;;;8.15;2.88;;;4.70;84.20;;;;;;4956834;28;20101;-86
2021/01/18 13:13:47;;;;;;;10.98;3.00;;;4.80;84.50;;;;;;4959815;28;20104;-85